Time;durP1;ratioP1;P1;durP2;ratioP2;P2;SDS_P1;SDS_P2;PMS_P1;PMS_P2;Temp;Humidity;BMP_temperature;BMP_pressure;BME280_temperature;BME280_humidity;BME280_pressure;Samples;Min_cycle;Max_cycle;Signal;HPM_P1;HPM_P2
2022/11/08 00:03:50;;;;;;;12.60;2.87;;;;;;;;;;5068555;28;20084;-64
2022/11/08 00:14:31;;;;;;;14.60;3.80;;;;;;;;;;5069195;28;20052;-64
2022/11/08 00:16:57;;;;;;;10.03;3.50;;;;;;;;;;5069163;28;20051;-64
2022/11/08 00:19:23;;;;;;;11.60;2.83;;;;;;;;;;5069200;28;20422;-64
2022/11/08 00:21:49;;;;;;;10.30;2.47;;;;;;;;;;5069403;28;20101;-64
2022/11/08 00:24:15;;;;;;;22.27;3.43;;;;;;;;;;5067868;28;20414;-64
2022/11/08 00:26:41;;;;;;;15.87;3.20;;;;;;;;;;5068847;28;20428;-64
2022/11/08 00:29:07;;;;;;;17.50;4.00;;;;;;;;;;5069170;28;20036;-64
2022/11/08 00:31:33;;;;;;;9.70;2.60;;;;;;;;;;5069169;28;20044;-64
2022/11/08 00:33:59;;;;;;;15.03;3.03;;;;;;;;;;5067865;28;20056;-64
2022/11/08 00:36:25;;;;;;;15.23;3.60;;;;;;;;;;5068140;28;20040;-64
2022/11/08 00:38:51;;;;;;;12.87;2.67;;;;;;;;;;5048865;28;20057;-64
2022/11/08 00:41:17;;;;;;;15.67;3.20;;;;;;;;;;5048938;28;20052;-64
2022/11/08 00:43:43;;;;;;;14.37;3.03;;;;;;;;;;5047684;28;20045;-64
2022/11/08 00:46:09;;;;;;;12.23;3.37;;;;;;;;;;5048899;28;20041;-64
2022/11/08 00:48:35;;;;;;;9.70;3.33;;;;;;;;;;5047809;28;20055;-64
2022/11/08 00:51:02;;;;;;;8.80;2.73;;;;;;;;;;5048153;28;20041;-64
2022/11/08 00:53:28;;;;;;;12.93;3.10;;;;;;;;;;5048879;28;20086;-64
2022/11/08 00:56:14;;;;;;;11.43;3.30;;;;;;;;;;5048362;28;20077;-64
2022/11/08 00:58:42;;;;;;;14.33;2.80;;;;;;;;;;5048528;28;20519;-64
2022/11/08 01:01:12;;;;;;;19.73;4.17;;;;;;;;;;5048826;28;20132;-64
2022/11/08 01:03:38;;;;;;;12.13;3.40;;;;;;;;;;5053633;28;20414;-64
2022/11/08 01:06:05;;;;;;;16.60;3.37;;;;;;;;;;5068775;28;20135;-64
2022/11/08 01:08:31;;;;;;;12.37;2.70;;;;;;;;;;5068664;28;20055;-64
2022/11/08 01:11:00;;;;;;;11.33;3.53;;;;;;;;;;5068761;28;20041;-64
2022/11/08 01:13:26;;;;;;;10.03;3.13;;;;;;;;;;5068126;28;20056;-64
2022/11/08 01:15:52;;;;;;;9.33;2.57;;;;;;;;;;5067457;28;20062;-64
2022/11/08 01:18:18;;;;;;;13.43;3.40;;;;;;;;;;5068847;28;20131;-64
2022/11/08 01:20:45;;;;;;;18.07;3.30;;;;;;;;;;5068428;28;20045;-64
2022/11/08 01:23:12;;;;;;;8.27;3.00;;;;;;;;;;5067322;28;20072;-64
2022/11/08 01:25:39;;;;;;;14.00;3.00;;;;;;;;;;5068612;28;20050;-64
2022/11/08 01:28:05;;;;;;;12.80;3.20;;;;;;;;;;5063984;28;20407;-64
2022/11/08 01:30:32;;;;;;;15.37;3.43;;;;;;;;;;5048501;28;20055;-64
2022/11/08 01:32:58;;;;;;;9.40;2.23;;;;;;;;;;5048550;28;20045;-64
2022/11/08 01:35:24;;;;;;;12.50;3.17;;;;;;;;;;5047042;28;20102;-64
2022/11/08 01:37:50;;;;;;;16.13;3.20;;;;;;;;;;5048019;28;20045;-64
2022/11/08 01:40:16;;;;;;;10.27;2.90;;;;;;;;;;5048511;28;20041;-64
2022/11/08 01:42:42;;;;;;;8.20;2.60;;;;;;;;;;5048172;28;20048;-64
2022/11/08 01:45:10;;;;;;;13.43;3.17;;;;;;;;;;5048323;28;20068;-64
2022/11/08 01:47:37;;;;;;;17.20;3.07;;;;;;;;;;5048468;28;20045;-64
2022/11/08 01:50:10;;;;;;;21.67;3.97;;;;;;;;;;5047809;28;20045;-64
2022/11/08 01:52:47;;;;;;;12.23;3.42;;;;;;;;;;5047530;28;20053;-64
2022/11/08 01:55:18;;;;;;;14.40;3.50;;;;;;;;;;5068384;28;20040;-64
2022/11/08 01:57:49;;;;;;;10.97;2.80;;;;;;;;;;5067766;28;20506;-63
2022/11/08 02:00:16;;;;;;;10.00;2.90;;;;;;;;;;5067825;28;20048;-65
2022/11/08 02:02:43;;;;;;;12.93;3.90;;;;;;;;;;5064837;28;20068;-64
2022/11/08 02:05:23;;;;;;;6.93;2.40;;;;;;;;;;5047950;28;20044;-64
2022/11/08 02:08:09;;;;;;;9.57;3.37;;;;;;;;;;5048124;28;20081;-64
2022/11/08 02:10:40;;;;;;;9.27;2.90;;;;;;;;;;5047091;28;20049;-64
2022/11/08 02:13:18;;;;;;;16.33;4.30;;;;;;;;;;5052680;28;20521;-64
2022/11/08 02:15:44;;;;;;;14.90;3.23;;;;;;;;;;5067638;28;20056;-64
2022/11/08 02:18:10;;;;;;;12.70;4.10;;;;;;;;;;5067931;28;20105;-64
2022/11/08 02:20:36;;;;;;;14.60;3.30;;;;;;;;;;5067402;28;20037;-64
2022/11/08 02:23:13;;;;;;;10.43;2.50;;;;;;;;;;5069975;28;20066;-64
2022/11/08 02:25:39;;;;;;;11.17;2.67;;;;;;;;;;5070856;28;20132;-64
2022/11/08 02:28:05;;;;;;;16.50;3.27;;;;;;;;;;5069514;28;20036;-64
2022/11/08 02:30:35;;;;;;;9.47;3.43;;;;;;;;;;5071374;28;20041;-64
2022/11/08 02:33:15;;;;;;;13.43;3.50;;;;;;;;;;5066258;28;20048;-64
2022/11/08 02:35:41;;;;;;;17.00;3.20;;;;;;;;;;5051292;28;20558;-64
2022/11/08 02:38:07;;;;;;;14.23;4.50;;;;;;;;;;5051138;28;20077;-64
2022/11/08 02:40:52;;;;;;;16.77;3.80;;;;;;;;;;5050955;28;20072;-64
2022/11/08 02:43:19;;;;;;;11.83;3.20;;;;;;;;;;5051788;28;20045;-64
2022/11/08 02:45:45;;;;;;;12.57;3.00;;;;;;;;;;5049888;28;20049;-64
2022/11/08 02:48:11;;;;;;;15.07;3.53;;;;;;;;;;5051078;28;20092;-64
2022/11/08 02:50:38;;;;;;;15.30;3.47;;;;;;;;;;5050558;28;20049;-64
2022/11/08 02:53:04;;;;;;;16.47;3.73;;;;;;;;;;5053177;28;20045;-64
2022/11/08 02:55:31;;;;;;;14.97;3.80;;;;;;;;;;5050775;28;20100;-64
2022/11/08 02:57:57;;;;;;;14.33;3.50;;;;;;;;;;5051110;28;20053;-64
2022/11/08 03:00:23;;;;;;;11.87;3.23;;;;;;;;;;5050924;28;20053;-64
2022/11/08 03:02:53;;;;;;;10.90;3.00;;;;;;;;;;5051788;28;20044;-64
2022/11/08 03:05:19;;;;;;;16.50;3.30;;;;;;;;;;5049085;28;20102;-64
2022/11/08 03:07:45;;;;;;;10.07;4.17;;;;;;;;;;5050725;28;20135;-64
2022/11/08 03:10:12;;;;;;;11.73;3.13;;;;;;;;;;5050827;28;20045;-64
2022/11/08 03:12:38;;;;;;;14.73;3.40;;;;;;;;;;5056579;28;20048;-64
2022/11/08 03:15:05;;;;;;;9.57;3.30;;;;;;;;;;5070825;28;20076;-64
2022/11/08 03:17:31;;;;;;;15.70;3.70;;;;;;;;;;5069879;28;20421;-64
2022/11/08 03:19:57;;;;;;;12.87;3.23;;;;;;;;;;5070610;28;20649;-64
2022/11/08 03:22:24;;;;;;;12.33;3.10;;;;;;;;;;5066042;28;20108;-64
2022/11/08 03:24:50;;;;;;;11.83;3.50;;;;;;;;;;5048941;28;20063;-65
2022/11/08 03:27:17;;;;;;;14.33;3.83;;;;;;;;;;5050274;28;20414;-64
2022/11/08 03:29:44;;;;;;;14.17;3.63;;;;;;;;;;5050209;28;20088;-64
2022/11/08 03:32:10;;;;;;;10.50;2.70;;;;;;;;;;5052084;28;20049;-64
2022/11/08 03:34:36;;;;;;;13.67;4.27;;;;;;;;;;5068049;28;20044;-64
2022/11/08 03:37:04;;;;;;;13.20;3.53;;;;;;;;;;5069907;28;20047;-64
2022/11/08 03:39:30;;;;;;;13.97;3.37;;;;;;;;;;5069955;28;20044;-64
2022/11/08 03:41:58;;;;;;;12.17;3.67;;;;;;;;;;5069297;28;20056;-65
2022/11/08 03:44:24;;;;;;;11.33;3.23;;;;;;;;;;5050293;28;20049;-64
2022/11/08 03:46:50;;;;;;;11.53;3.53;;;;;;;;;;5049494;28;20492;-64
2022/11/08 03:49:16;;;;;;;11.67;3.23;;;;;;;;;;5049369;28;20072;-64
2022/11/08 03:51:42;;;;;;;12.07;3.07;;;;;;;;;;5049844;28;20041;-64
2022/11/08 03:54:09;;;;;;;17.20;2.77;;;;;;;;;;5066383;28;20778;-64
2022/11/08 03:56:35;;;;;;;13.07;3.27;;;;;;;;;;5069683;28;20048;-64
2022/11/08 03:59:01;;;;;;;14.27;3.60;;;;;;;;;;5069771;28;20051;-64
2022/11/08 04:01:27;;;;;;;12.47;3.90;;;;;;;;;;5069395;28;20132;-64
2022/11/08 04:03:53;;;;;;;11.77;3.13;;;;;;;;;;5053874;28;20056;-64
2022/11/08 04:06:19;;;;;;;10.03;2.70;;;;;;;;;;5049633;28;20437;-64
2022/11/08 04:08:45;;;;;;;9.47;2.97;;;;;;;;;;5048341;28;20099;-64
2022/11/08 04:16:41;;;;;;;10.43;2.97;;;;;;;;;;5069072;28;20045;-64
2022/11/08 04:21:53;;;;;;;9.27;2.80;;;;;;;;;;5068894;28;20417;-64
2022/11/08 04:24:19;;;;;;;10.40;3.20;;;;;;;;;;5051331;28;20045;-64
2022/11/08 04:26:45;;;;;;;10.97;3.33;;;;;;;;;;5048049;28;20068;-64
2022/11/08 04:29:12;;;;;;;10.70;2.87;;;;;;;;;;5049553;28;20041;-64
2022/11/08 04:31:38;;;;;;;11.47;3.20;;;;;;;;;;5049115;28;20052;-64
2022/11/08 04:34:04;;;;;;;14.23;2.87;;;;;;;;;;5064673;28;20543;-65
2022/11/08 04:36:30;;;;;;;12.30;3.07;;;;;;;;;;5069051;28;20048;-64
2022/11/08 04:38:56;;;;;;;11.47;2.90;;;;;;;;;;5068856;28;20055;-64
2022/11/08 04:41:23;;;;;;;8.43;3.80;;;;;;;;;;5069244;28;20506;-64
2022/11/08 04:43:50;;;;;;;8.10;2.57;;;;;;;;;;5055763;28;20045;-64
2022/11/08 04:46:17;;;;;;;10.17;3.07;;;;;;;;;;5052212;28;20100;-64
2022/11/08 04:48:45;;;;;;;10.77;3.37;;;;;;;;;;5068742;28;20507;-64
2022/11/08 04:51:16;;;;;;;6.83;2.60;;;;;;;;;;5068630;28;20044;-64
2022/11/08 04:53:42;;;;;;;14.97;2.80;;;;;;;;;;5059227;28;20081;-64
2022/11/08 04:56:12;;;;;;;6.33;2.60;;;;;;;;;;5047109;28;20040;-65
2022/11/08 04:58:42;;;;;;;9.87;2.67;;;;;;;;;;5047451;28;20611;-65
2022/11/08 05:01:09;;;;;;;10.53;3.03;;;;;;;;;;5047893;28;20060;-65
2022/11/08 05:03:36;;;;;;;9.30;2.60;;;;;;;;;;5062318;28;20075;-65
2022/11/08 05:06:06;;;;;;;9.30;2.97;;;;;;;;;;5068859;28;20048;-65
2022/11/08 05:08:32;;;;;;;23.40;4.20;;;;;;;;;;5068792;28;20053;-65
2022/11/08 05:11:06;;;;;;;7.40;2.70;;;;;;;;;;5067175;28;20407;-65
2022/11/08 05:13:32;;;;;;;12.20;2.27;;;;;;;;;;5054425;28;20146;-65
2022/11/08 05:15:59;;;;;;;9.90;2.77;;;;;;;;;;5048726;28;20084;-65
2022/11/08 05:18:25;;;;;;;8.67;2.57;;;;;;;;;;5048702;28;20075;-66
2022/11/08 05:23:40;;;;;;;7.63;2.60;;;;;;;;;;5053218;28;20507;-66
2022/11/08 05:26:06;;;;;;;8.20;3.37;;;;;;;;;;5048628;28;20396;-65
2022/11/08 05:28:32;;;;;;;9.00;2.80;;;;;;;;;;5047251;28;20128;-65
2022/11/08 05:30:59;;;;;;;11.73;2.57;;;;;;;;;;5048673;28;20400;-65
2022/11/08 05:33:25;;;;;;;13.53;2.80;;;;;;;;;;5060655;28;20052;-66
2022/11/08 05:35:51;;;;;;;6.07;2.20;;;;;;;;;;5068357;28;20119;-65
2022/11/08 05:38:18;;;;;;;12.07;2.97;;;;;;;;;;5068439;28;20040;-65
2022/11/08 05:40:44;;;;;;;12.17;2.90;;;;;;;;;;5068328;28;20088;-65
2022/11/08 05:43:10;;;;;;;7.30;2.23;;;;;;;;;;5063460;28;20171;-65
2022/11/08 05:45:37;;;;;;;13.57;2.73;;;;;;;;;;5061484;28;20425;-66
2022/11/08 05:48:03;;;;;;;9.07;2.60;;;;;;;;;;5068105;28;20053;-65
2022/11/08 05:50:33;;;;;;;9.57;2.33;;;;;;;;;;5068507;28;20067;-65
2022/11/08 05:52:59;;;;;;;7.73;2.53;;;;;;;;;;5066558;28;20048;-65
2022/11/08 05:55:25;;;;;;;11.67;2.57;;;;;;;;;;5066535;28;20151;-65
2022/11/08 05:57:51;;;;;;;11.67;3.30;;;;;;;;;;5070979;28;20044;-65
2022/11/08 06:00:18;;;;;;;10.13;3.03;;;;;;;;;;5054103;28;20041;-65
2022/11/08 06:02:44;;;;;;;9.83;3.20;;;;;;;;;;5052155;28;20049;-65
2022/11/08 06:05:11;;;;;;;9.97;3.23;;;;;;;;;;5051664;28;20053;-65
2022/11/08 06:07:37;;;;;;;8.67;3.07;;;;;;;;;;5052053;28;20045;-65
2022/11/08 06:10:04;;;;;;;9.37;2.77;;;;;;;;;;5053300;28;20037;-65
2022/11/08 06:12:30;;;;;;;8.57;2.90;;;;;;;;;;5051429;28;20056;-65
2022/11/08 06:14:56;;;;;;;6.83;2.60;;;;;;;;;;5050399;28;20051;-65
2022/11/08 06:17:22;;;;;;;11.07;3.67;;;;;;;;;;5051428;28;20048;-65
2022/11/08 06:19:48;;;;;;;8.57;3.23;;;;;;;;;;5052363;28;20052;-65
2022/11/08 06:22:14;;;;;;;13.10;3.53;;;;;;;;;;5071713;28;20051;-65
2022/11/08 06:24:40;;;;;;;10.60;3.50;;;;;;;;;;5071272;28;20468;-65
2022/11/08 06:27:06;;;;;;;10.60;3.20;;;;;;;;;;5071516;28;20099;-65
2022/11/08 06:29:32;;;;;;;8.00;2.80;;;;;;;;;;5065589;28;20485;-65
2022/11/08 06:31:58;;;;;;;10.23;3.20;;;;;;;;;;5060309;28;20041;-66
2022/11/08 06:34:24;;;;;;;7.67;3.47;;;;;;;;;;5054460;28;20045;-66
2022/11/08 06:36:51;;;;;;;9.33;3.47;;;;;;;;;;5050964;28;20076;-65
2022/11/08 06:39:17;;;;;;;9.03;3.30;;;;;;;;;;5053938;28;20126;-65
2022/11/08 06:41:43;;;;;;;13.93;4.00;;;;;;;;;;5070818;28;20087;-66
2022/11/08 06:44:09;;;;;;;8.47;3.13;;;;;;;;;;5071204;28;20437;-65
2022/11/08 06:46:35;;;;;;;10.20;3.60;;;;;;;;;;5063881;28;20051;-65
2022/11/08 06:49:01;;;;;;;16.37;4.43;;;;;;;;;;5049767;28;20049;-65
2022/11/08 06:51:27;;;;;;;11.17;3.90;;;;;;;;;;5049758;28;20059;-65
2022/11/08 06:53:53;;;;;;;11.40;3.77;;;;;;;;;;5050332;28;20123;-65
2022/11/08 06:56:19;;;;;;;8.77;3.30;;;;;;;;;;5054619;28;20528;-65
2022/11/08 06:58:45;;;;;;;8.73;3.10;;;;;;;;;;5069928;28;20045;-65
2022/11/08 07:01:12;;;;;;;11.83;3.67;;;;;;;;;;5070044;28;20044;-65
2022/11/08 07:03:38;;;;;;;10.77;3.47;;;;;;;;;;5070369;28;20106;-66
2022/11/08 07:06:05;;;;;;;10.23;3.13;;;;;;;;;;5070322;28;20056;-65
2022/11/08 07:08:32;;;;;;;10.67;3.80;;;;;;;;;;5067629;28;20048;-65
2022/11/08 07:10:58;;;;;;;9.20;3.30;;;;;;;;;;5070183;28;20519;-65
2022/11/08 07:13:24;;;;;;;7.03;3.17;;;;;;;;;;5069899;28;20053;-65
2022/11/08 07:15:50;;;;;;;13.33;3.70;;;;;;;;;;5069739;28;20087;-65
2022/11/08 07:18:17;;;;;;;10.90;3.20;;;;;;;;;;5068824;28;20072;-65
2022/11/08 07:20:43;;;;;;;7.10;2.73;;;;;;;;;;5069392;28;20045;-65
2022/11/08 07:23:10;;;;;;;8.10;3.00;;;;;;;;;;5068089;28;20383;-65
2022/11/08 07:25:36;;;;;;;6.37;2.53;;;;;;;;;;5057872;28;20143;-65
2022/11/08 07:28:03;;;;;;;8.33;3.03;;;;;;;;;;5050012;28;20139;-65
2022/11/08 07:30:29;;;;;;;9.10;3.00;;;;;;;;;;5049715;28;20049;-65
2022/11/08 07:32:56;;;;;;;5.17;2.60;;;;;;;;;;5049393;28;20375;-65
2022/11/08 07:35:22;;;;;;;5.73;2.60;;;;;;;;;;5049657;28;20131;-66
2022/11/08 07:37:48;;;;;;;7.87;2.20;;;;;;;;;;5048576;28;20048;-65
2022/11/08 07:40:15;;;;;;;9.33;3.30;;;;;;;;;;5048307;28;20044;-65
2022/11/08 07:42:41;;;;;;;9.93;3.40;;;;;;;;;;5049401;28;20135;-65
2022/11/08 07:45:07;;;;;;;6.67;2.00;;;;;;;;;;5049451;28;20088;-65
2022/11/08 07:47:33;;;;;;;9.43;2.20;;;;;;;;;;5067783;28;20496;-65
2022/11/08 07:49:59;;;;;;;4.63;2.17;;;;;;;;;;5068997;28;20080;-65
2022/11/08 07:52:26;;;;;;;6.33;2.00;;;;;;;;;;5068883;28;20525;-65
2022/11/08 07:54:52;;;;;;;10.43;2.37;;;;;;;;;;5064538;28;20048;-65
2022/11/08 07:57:18;;;;;;;6.30;2.40;;;;;;;;;;5056025;28;20441;-65
2022/11/08 07:59:44;;;;;;;5.63;1.90;;;;;;;;;;5069114;28;20489;-65
2022/11/08 08:02:10;;;;;;;5.63;1.83;;;;;;;;;;5069285;28;20072;-65
2022/11/08 08:04:37;;;;;;;5.90;2.03;;;;;;;;;;5055508;28;20465;-65
2022/11/08 08:07:03;;;;;;;9.47;2.03;;;;;;;;;;5050313;28;20043;-65
2022/11/08 08:09:29;;;;;;;6.07;2.40;;;;;;;;;;5059086;28;20036;-65
2022/11/08 08:11:55;;;;;;;5.10;2.00;;;;;;;;;;5062857;28;20053;-65
2022/11/08 08:14:21;;;;;;;7.47;2.20;;;;;;;;;;5047239;28;20057;-65
2022/11/08 08:16:47;;;;;;;7.80;2.40;;;;;;;;;;5058753;28;20048;-65
2022/11/08 08:19:13;;;;;;;4.50;1.93;;;;;;;;;;5064682;28;20105;-65
2022/11/08 08:21:39;;;;;;;4.50;1.80;;;;;;;;;;5065091;28;20044;-65
2022/11/08 08:24:05;;;;;;;5.60;1.93;;;;;;;;;;5061692;28;20049;-65
2022/11/08 08:26:31;;;;;;;11.20;2.60;;;;;;;;;;5057387;28;20041;-65
2022/11/08 08:28:57;;;;;;;9.80;2.13;;;;;;;;;;5064250;28;20095;-65
2022/11/08 08:31:23;;;;;;;6.50;2.10;;;;;;;;;;5061309;28;20052;-65
2022/11/08 08:33:49;;;;;;;5.70;2.20;;;;;;;;;;5063698;28;20052;-65
2022/11/08 08:36:16;;;;;;;5.10;2.10;;;;;;;;;;5067073;28;20587;-65
2022/11/08 08:38:42;;;;;;;7.07;1.90;;;;;;;;;;5067838;28;20044;-65
2022/11/08 08:41:08;;;;;;;4.97;1.70;;;;;;;;;;5066939;28;20040;-65
2022/11/08 08:43:34;;;;;;;6.43;1.80;;;;;;;;;;5063748;28;20045;-65
2022/11/08 08:46:00;;;;;;;6.80;1.80;;;;;;;;;;5048574;28;20040;-65
2022/11/08 08:48:26;;;;;;;4.97;2.07;;;;;;;;;;5067323;28;20095;-65
2022/11/08 08:50:53;;;;;;;7.47;1.80;;;;;;;;;;5068464;28;20053;-65
2022/11/08 08:53:19;;;;;;;5.17;2.10;;;;;;;;;;5064637;28;20052;-65
2022/11/08 08:55:46;;;;;;;6.00;1.93;;;;;;;;;;5047218;28;20423;-65
2022/11/08 08:58:12;;;;;;;5.17;1.90;;;;;;;;;;5048488;28;20461;-65
2022/11/08 09:00:38;;;;;;;7.57;1.53;;;;;;;;;;5062766;28;20048;-65
2022/11/08 09:03:06;;;;;;;3.90;2.13;;;;;;;;;;5063625;28;20124;-65
2022/11/08 09:05:32;;;;;;;9.67;2.17;;;;;;;;;;5051071;28;20041;-65
2022/11/08 09:07:58;;;;;;;6.07;2.07;;;;;;;;;;5055828;28;20118;-65
2022/11/08 09:10:25;;;;;;;6.70;1.60;;;;;;;;;;5064716;28;20415;-65
2022/11/08 09:12:51;;;;;;;4.87;1.80;;;;;;;;;;5064091;28;20048;-65
2022/11/08 09:15:17;;;;;;;5.87;1.93;;;;;;;;;;5067088;28;20040;-65
2022/11/08 09:17:43;;;;;;;6.40;1.73;;;;;;;;;;5065462;28;20533;-65
2022/11/08 09:20:10;;;;;;;4.03;1.40;;;;;;;;;;5062034;28;20053;-65
2022/11/08 09:22:36;;;;;;;4.93;2.37;;;;;;;;;;5067231;28;20040;-65
2022/11/08 09:25:03;;;;;;;4.63;1.83;;;;;;;;;;5065830;28;20048;-65
2022/11/08 09:27:30;;;;;;;4.87;1.70;;;;;;;;;;5063457;28;20049;-65
2022/11/08 09:29:57;;;;;;;4.43;1.60;;;;;;;;;;5059824;28;20037;-65
2022/11/08 09:32:24;;;;;;;8.60;2.13;;;;;;;;;;5052418;28;20048;-65
2022/11/08 09:34:50;;;;;;;5.63;2.10;;;;;;;;;;5053969;28;20205;-65
2022/11/08 09:37:17;;;;;;;5.20;1.33;;;;;;;;;;5062002;28;20032;-65
2022/11/08 09:39:43;;;;;;;5.87;1.60;;;;;;;;;;5062757;28;20044;-65
2022/11/08 09:42:27;;;;;;;8.53;1.57;;;;;;;;;;5067319;28;20059;-65
2022/11/08 09:45:10;;;;;;;6.60;1.63;;;;;;;;;;5051880;28;20048;-65
2022/11/08 09:47:41;;;;;;;3.58;1.90;;;;;;;;;;5069335;28;20052;-65
2022/11/08 09:50:07;;;;;;;4.13;1.67;;;;;;;;;;5065362;28;20051;-65
2022/11/08 09:52:34;;;;;;;4.87;1.60;;;;;;;;;;5064234;28;20040;-65
2022/11/08 09:55:13;;;;;;;6.47;1.53;;;;;;;;;;5062711;28;20040;-65
2022/11/08 09:57:51;;;;;;;5.70;2.07;;;;;;;;;;5064564;28;20514;-65
2022/11/08 10:00:17;;;;;;;3.53;1.63;;;;;;;;;;5070441;28;20055;-65
2022/11/08 10:02:43;;;;;;;7.30;1.70;;;;;;;;;;5068943;28;20048;-65
2022/11/08 10:05:14;;;;;;;5.47;1.60;;;;;;;;;;5069283;28;20386;-65
2022/11/08 10:07:59;;;;;;;4.10;1.60;;;;;;;;;;5069964;28;20044;-65
2022/11/08 10:10:28;;;;;;;6.80;2.03;;;;;;;;;;5067500;28;20036;-65
2022/11/08 10:13:13;;;;;;;7.93;2.93;;;;;;;;;;5069333;28;20117;-64
2022/11/08 10:15:39;;;;;;;4.80;1.43;;;;;;;;;;5069097;28;20044;-64
2022/11/08 10:18:14;;;;;;;4.67;1.60;;;;;;;;;;5069574;28;20102;-64
2022/11/08 10:20:59;;;;;;;6.10;1.83;;;;;;;;;;5069781;28;20090;-64
2022/11/08 10:23:37;;;;;;;7.10;1.70;;;;;;;;;;5068962;28;20104;-64
2022/11/08 10:26:12;;;;;;;6.67;2.13;;;;;;;;;;5068550;28;20110;-64
2022/11/08 10:28:46;;;;;;;5.13;2.30;;;;;;;;;;5069236;28;20045;-64
2022/11/08 10:31:12;;;;;;;;;;;;;;;;;;5068565;28;20049;-64
2022/11/08 10:33:43;;;;;;;3.43;1.57;;;;;;;;;;5062933;28;19947;-64
2022/11/08 10:36:15;;;;;;;7.20;1.90;;;;;;;;;;5065665;28;20044;-64
2022/11/08 10:38:49;;;;;;;6.03;1.63;;;;;;;;;;5070725;28;20044;-64
2022/11/08 10:41:18;;;;;;;4.37;1.70;;;;;;;;;;5070468;28;20037;-64
2022/11/08 10:43:46;;;;;;;4.37;1.73;;;;;;;;;;5069648;28;20590;-64
2022/11/08 10:46:31;;;;;;;7.70;1.77;;;;;;;;;;5055557;28;20049;-64
2022/11/08 10:49:04;;;;;;;4.53;1.70;;;;;;;;;;5049139;28;20510;-64
2022/11/08 10:51:31;;;;;;;7.00;1.63;;;;;;;;;;5049963;28;20052;-64
2022/11/08 10:53:57;;;;;;;3.67;1.47;;;;;;;;;;5050072;28;20040;-64
2022/11/08 10:56:23;;;;;;;5.27;1.73;;;;;;;;;;5049083;28;20063;-64
2022/11/08 10:58:49;;;;;;;5.70;1.50;;;;;;;;;;5049589;28;20048;-64
2022/11/08 11:01:15;;;;;;;4.73;1.53;;;;;;;;;;5052967;28;20453;-64
2022/11/08 11:03:42;;;;;;;4.23;1.73;;;;;;;;;;5061023;28;20036;-64
2022/11/08 11:06:20;;;;;;;3.43;1.60;;;;;;;;;;5065173;28;20661;-64
2022/11/08 11:09:00;;;;;;;8.43;1.50;;;;;;;;;;5059473;28;20194;-64
2022/11/08 11:11:32;;;;;;;2.73;1.40;;;;;;;;;;5059348;28;20449;-63
2022/11/08 11:14:06;;;;;;;4.10;1.70;;;;;;;;;;5063100;28;20052;-63
2022/11/08 11:16:33;;;;;;;5.40;2.03;;;;;;;;;;5056763;28;20060;-63
2022/11/08 11:19:01;;;;;;;5.07;1.67;;;;;;;;;;5065596;28;20047;-64
2022/11/08 11:21:34;;;;;;;6.07;1.70;;;;;;;;;;5062988;28;20057;-63
2022/11/08 11:24:17;;;;;;;7.32;1.92;;;;;;;;;;5060686;28;20045;-63
2022/11/08 11:26:45;;;;;;;3.83;1.42;;;;;;;;;;5061245;28;20048;-63
2022/11/08 11:29:14;;;;;;;5.13;1.50;;;;;;;;;;5063395;28;20052;-63
2022/11/08 11:31:45;;;;;;;5.53;1.97;;;;;;;;;;5062091;28;20103;-63
2022/11/08 11:34:17;;;;;;;3.67;1.40;;;;;;;;;;5056480;28;20048;-64
2022/11/08 11:36:53;;;;;;;6.47;1.60;;;;;;;;;;5056786;28;20530;-63
2022/11/08 11:39:29;;;;;;;4.13;1.87;;;;;;;;;;5047419;28;20049;-63
2022/11/08 11:42:00;;;;;;;5.67;1.67;;;;;;;;;;5047448;28;20045;-63
2022/11/08 11:44:27;;;;;;;3.87;1.70;;;;;;;;;;5047091;28;20049;-63
2022/11/08 11:47:02;;;;;;;3.60;1.80;;;;;;;;;;5046672;28;20048;-63
2022/11/08 11:49:29;;;;;;;5.70;1.83;;;;;;;;;;5047126;28;20498;-63
2022/11/08 11:51:56;;;;;;;4.63;1.60;;;;;;;;;;5046990;28;20109;-63
2022/11/08 11:54:24;;;;;;;5.60;1.60;;;;;;;;;;5047711;28;20056;-63
2022/11/08 11:56:53;;;;;;;4.23;1.67;;;;;;;;;;5060441;28;20044;-63
2022/11/08 11:59:19;;;;;;;4.67;1.80;;;;;;;;;;5068626;28;20049;-63
2022/11/08 12:02:04;;;;;;;8.63;3.27;;;;;;;;;;5067602;28;20391;-63
2022/11/08 12:04:50;;;;;;;4.33;1.67;;;;;;;;;;5068685;28;20091;-63
2022/11/08 12:07:19;;;;;;;3.97;1.53;;;;;;;;;;5066798;28;20045;-63
2022/11/08 12:09:50;;;;;;;3.13;1.43;;;;;;;;;;5068363;28;20074;-63
2022/11/08 12:12:38;;;;;;;4.47;1.70;;;;;;;;;;5065664;28;20060;-63
2022/11/08 12:15:10;;;;;;;4.33;1.40;;;;;;;;;;5066138;28;20861;-63
2022/11/08 12:17:52;;;;;;;2.97;1.53;;;;;;;;;;5068233;28;20308;-63
2022/11/08 12:20:26;;;;;;;4.57;1.60;;;;;;;;;;5067715;28;20480;-63
2022/11/08 12:23:16;;;;;;;5.53;1.70;;;;;;;;;;5066371;28;20469;-62
2022/11/08 12:25:42;;;;;;;4.17;2.10;;;;;;;;;;5065317;28;20406;-63
2022/11/08 12:28:11;;;;;;;3.23;1.43;;;;;;;;;;5067920;28;20052;-63
2022/11/08 12:30:47;;;;;;;4.20;1.53;;;;;;;;;;5067620;28;20048;-62
2022/11/08 12:33:14;;;;;;;4.33;1.50;;;;;;;;;;5066634;28;20098;-63
2022/11/08 12:35:48;;;;;;;5.13;1.80;;;;;;;;;;5066328;28;20036;-63
2022/11/08 12:38:14;;;;;;;4.30;1.60;;;;;;;;;;5064968;28;20049;-63
2022/11/08 12:40:59;;;;;;;5.80;1.90;;;;;;;;;;5067877;28;20078;-62
2022/11/08 12:43:32;;;;;;;4.03;2.00;;;;;;;;;;5066313;28;20044;-63
2022/11/08 12:46:17;;;;;;;5.70;1.90;;;;;;;;;;5068317;28;20048;-63
2022/11/08 12:49:02;;;;;;;7.07;1.70;;;;;;;;;;5048006;28;20652;-63
2022/11/08 12:51:40;;;;;;;5.17;2.33;;;;;;;;;;5047650;28;20052;-63
2022/11/08 12:54:07;;;;;;;3.40;1.60;;;;;;;;;;5047804;28;20045;-62
2022/11/08 12:56:39;;;;;;;5.20;1.53;;;;;;;;;;5048632;28;20124;-63
2022/11/08 12:59:14;;;;;;;4.40;1.30;;;;;;;;;;5047212;28;20111;-63
2022/11/08 13:01:40;;;;;;;5.07;1.70;;;;;;;;;;5047773;28;20045;-63
2022/11/08 13:04:20;;;;;;;6.13;1.70;;;;;;;;;;5048009;28;20053;-62
2022/11/08 13:06:56;;;;;;;6.40;1.80;;;;;;;;;;5048304;28;20045;-62
2022/11/08 13:09:22;;;;;;;6.13;1.77;;;;;;;;;;5047317;28;20222;-63
2022/11/08 13:11:54;;;;;;;6.97;1.93;;;;;;;;;;5047468;28;20079;-63
2022/11/08 13:14:21;;;;;;;8.50;2.13;;;;;;;;;;5047476;28;20060;-63
2022/11/08 13:17:06;;;;;;;4.80;1.60;;;;;;;;;;5050415;28;20098;-62
2022/11/08 13:19:50;;;;;;;5.03;1.53;;;;;;;;;;5056086;28;20045;-63
2022/11/08 13:22:31;;;;;;;4.90;1.43;;;;;;;;;;5047571;28;20086;-62
2022/11/08 13:25:01;;;;;;;8.87;2.00;;;;;;;;;;5047485;28;20049;-62
2022/11/08 13:27:35;;;;;;;5.80;1.67;;;;;;;;;;5047386;28;20056;-62
2022/11/08 13:30:10;;;;;;;4.53;1.93;;;;;;;;;;5049019;28;20080;-62
2022/11/08 13:32:42;;;;;;;14.53;1.90;;;;;;;;;;5046322;28;20040;-62
2022/11/08 13:35:27;;;;;;;3.90;1.50;;;;;;;;;;5047903;28;20418;-63
2022/11/08 13:38:16;;;;;;;4.20;1.30;;;;;;;;;;5047611;28;20053;-62
2022/11/08 13:40:48;;;;;;;5.97;1.93;;;;;;;;;;5048758;28;20092;-63
2022/11/08 13:43:26;;;;;;;4.30;1.67;;;;;;;;;;5047253;28;20398;-62
2022/11/08 13:45:53;;;;;;;4.60;2.07;;;;;;;;;;5047253;28;20132;-62
2022/11/08 13:48:25;;;;;;;4.70;1.50;;;;;;;;;;5047448;28;20057;-63
2022/11/08 13:50:58;;;;;;;4.15;1.20;;;;;;;;;;5066649;28;20458;-63
2022/11/08 13:53:42;;;;;;;4.32;1.52;;;;;;;;;;5067019;28;20040;-62
2022/11/08 13:56:08;;;;;;;7.33;1.77;;;;;;;;;;5067516;28;20044;-62
2022/11/08 13:58:38;;;;;;;4.97;1.90;;;;;;;;;;5065533;28;20045;-63
2022/11/08 14:01:06;;;;;;;4.47;1.70;;;;;;;;;;5067612;28;20318;-62
2022/11/08 14:03:32;;;;;;;6.10;1.53;;;;;;;;;;5067274;28;20049;-63
2022/11/08 14:06:01;;;;;;;7.70;2.20;;;;;;;;;;5067354;28;20041;-63
2022/11/08 14:08:28;;;;;;;6.70;2.20;;;;;;;;;;5066181;28;20414;-63
2022/11/08 14:11:10;;;;;;;4.77;1.77;;;;;;;;;;5066489;28;20071;-62
2022/11/08 14:13:56;;;;;;;8.53;1.93;;;;;;;;;;5065714;28;20074;-62
2022/11/08 14:16:25;;;;;;;5.03;1.73;;;;;;;;;;5046778;28;20132;-63
2022/11/08 14:18:51;;;;;;;3.90;1.70;;;;;;;;;;5049621;28;20044;-62
2022/11/08 14:21:18;;;;;;;5.53;1.77;;;;;;;;;;5050873;28;20060;-63
2022/11/08 14:23:47;;;;;;;4.40;1.80;;;;;;;;;;5051546;28;20053;-62
2022/11/08 14:26:31;;;;;;;4.80;1.70;;;;;;;;;;5050951;28;20049;-62
2022/11/08 14:28:59;;;;;;;4.67;1.63;;;;;;;;;;5050938;28;20052;-63
2022/11/08 14:31:32;;;;;;;4.63;1.50;;;;;;;;;;5055966;28;20091;-63
2022/11/08 14:33:59;;;;;;;4.03;1.65;;;;;;;;;;5070591;28;20037;-63
2022/11/08 14:36:25;;;;;;;9.50;1.77;;;;;;;;;;5069127;28;20037;-63
2022/11/08 14:39:03;;;;;;;8.73;2.40;;;;;;;;;;5069185;28;20143;-62
2022/11/08 14:41:31;;;;;;;5.90;1.93;;;;;;;;;;5066212;28;20131;-62
2022/11/08 14:43:58;;;;;;;4.97;1.43;;;;;;;;;;5060143;28;20048;-62
2022/11/08 14:46:27;;;;;;;8.10;1.73;;;;;;;;;;5050908;28;20048;-63
2022/11/08 14:48:55;;;;;;;6.73;1.97;;;;;;;;;;5055873;28;20594;-62
2022/11/08 14:51:22;;;;;;;6.13;2.60;;;;;;;;;;5062435;28;20041;-63
2022/11/08 14:53:55;;;;;;;8.33;2.20;;;;;;;;;;5068591;28;20476;-62
2022/11/08 14:56:25;;;;;;;6.75;1.50;;;;;;;;;;5070794;28;20051;-63
2022/11/08 14:58:52;;;;;;;6.97;1.70;;;;;;;;;;5069997;28;20056;-63
2022/11/08 15:01:22;;;;;;;5.37;1.53;;;;;;;;;;5060672;28;20385;-62
2022/11/08 15:03:53;;;;;;;5.03;1.53;;;;;;;;;;5051047;28;20556;-63
2022/11/08 15:06:19;;;;;;;5.63;1.30;;;;;;;;;;5068306;28;20128;-63
2022/11/08 15:08:45;;;;;;;7.40;2.47;;;;;;;;;;5067059;28;20048;-63
2022/11/08 15:11:26;;;;;;;4.80;1.87;;;;;;;;;;5067506;28;20041;-63